Terminal Aerodrome Forecast
Issued by NWS

Home | Current Version | Previous Version | Text Only | Print | Product List | Glossary On
Versions: 1 2 3 4 5 6 7 8 9 10 11 12 13
210
FTUS41 KPBZ 221120
TAFBVI
TAF
KBVI 221120Z 2212/2312 16005KT P6SM VCSH BKN035
     FM221600 17005KT P6SM BKN080
     FM230200 16008KT P6SM -SHRA OVC040
     FM230500 20008KT P6SM -SHRA OVC025
      AMD NOT SKED=

USA.gov is the U.S. government's official web portal to all federal, state and local government web resources and services.